Flight Track Log - Related Links

Times and Time Zones

All times are in EDT time to prevent confusion due to time zone crossing. See the C-GEJD flight status page for this flight to view local times or setup timezone preferences in your user account.

Time Position Orientation Groundspeed Altitude Reporting Facility
EDT Latitude Longitude Course Direction KTS MPH feet Rate Location/Type
Mon 09:48:15 PM 45.3392 -65.8856 309° West 182 209 3,300  Level Boston Center
Mon 09:49:16 PM 45.3272 -65.9844 260° West 271 312 6,100 2,902 Climbing Boston Center
Mon 09:50:17 PM 45.3314 -66.1064 273° West 289 333 9,200 3,787 Climbing Boston Center
Mon 09:51:18 PM 45.3444 -66.2419 278° West 327 376 13,800 4,612 Climbing Boston Center
Mon 09:52:18 PM 45.3561 -66.3806 277° West 349 402 18,500 4,116 Climbing Boston Center
Mon 09:53:00 PM 45.4080 -66.7268 309° West  Level FlightAware Approximate
Mon 09:53:19 PM 45.3650 -66.5206 275° West 353 406 22,100  Level Boston Center
Mon 09:54:20 PM 45.3897 -66.6758 283° West 382 440 24,900 2,852 Climbing Boston Center
Mon 09:55:21 PM 45.4592 -66.8039 308° West 416 479 27,900 2,705 Climbing Boston Center
Mon 09:56:22 PM 45.5331 -66.9314 310° West 419 482 30,400 2,016 Climbing Boston Center
Mon 09:57:23 PM 45.6097 -67.0678 309° West 437 503 32,000 1,967 Climbing Boston Center
Mon 09:58:24 PM 45.6897 -67.2111 309° West 459 528 34,400 2,678 Climbing Boston Center
Mon 09:59:24 PM 45.7681 -67.3492 309° West 433 498 37,400 2,479 Climbing Boston Center
Mon 10:00:25 PM 45.8386 -67.4736 309° West 411 473 39,400 1,357 Climbing Boston Center
Mon 10:01:19 PM 45.9000 -67.6000 305° West 400 460 40,000 316 Climbing Moncton Center
Mon 10:02:19 PM 45.9833 -67.7500 309° West 420 483 40,000  Level Moncton Center
Mon 10:03:19 PM 46.0167 -67.9000 288° West 420 483 40,000  Level Moncton Center
Mon 10:04:19 PM 46.0167 -68.0667 270° West 430 495 40,000  Level Moncton Center
Mon 10:05:30 PM 46.0264 -68.2644 274° West 432 497 40,000  Level Boston Center
Mon 10:06:30 PM 46.0214 -68.4378 268° West 432 497 40,000  Level Boston Center
Mon 10:07:31 PM 46.0167 -68.6131 268° West 434 499 40,000  Level Boston Center
Mon 10:08:32 PM 46.0108 -68.7864 267° West 433 498 40,000  Level Boston Center
Mon 10:09:33 PM 46.0053 -68.9589 267° West 434 499 40,000  Level Boston Center
Mon 10:10:34 PM 45.9989 -69.1308 267° West 433 498 40,000  Level Boston Center
Mon 10:11:34 PM 45.9922 -69.3019 267° West 430 495 40,000  Level Boston Center
Mon 10:12:35 PM 45.9850 -69.4739 267° West 431 496 40,000  Level Boston Center
Mon 10:13:36 PM 45.9786 -69.6489 267° West 432 497 40,000  Level Boston Center
Mon 10:14:37 PM 45.9717 -69.8186 267° West 429 494 40,000  Level Boston Center
Mon 10:15:37 PM 45.9647 -69.9878 267° West 428 493 40,000  Level Boston Center
Mon 10:16:38 PM 45.9567 -70.1544 266° West 422 486 40,000  Level Boston Center
Mon 10:17:19 PM 45.9333 -70.3000 257° West 420 483 40,000  Level Moncton Center
Mon 10:18:06 PM 45.9333 -70.4000 270° West 420 483 40,000  Level Montreal Center
Mon 10:19:06 PM 45.9333 -70.5667 270° West 420 483 40,000  Level Montreal Center
Mon 10:20:06 PM 45.9167 -70.7333 262° West 420 483 40,000  Level Montreal Center
Mon 10:21:06 PM 45.9000 -70.8833 261° West 420 483 40,000  Level Montreal Center
Mon 10:22:06 PM 45.9000 -71.0500 270° West 420 483 40,000  Level Montreal Center
Mon 10:23:06 PM 45.8667 -71.2167 254° West 420 483 40,000  Level Montreal Center
Mon 10:24:06 PM 45.8667 -71.4000 270° West 420 483 40,000 -450 Level Montreal Center
Mon 10:25:06 PM 45.8500 -71.5667 262° West 410 472 39,100 -1,650 Descending Montreal Center
Mon 10:26:06 PM 45.8333 -71.7333 262° West 390 449 36,700 -2,300 Descending Montreal Center
Mon 10:27:06 PM 45.8167 -71.8833 261° West 380 437 34,500 -2,200 Descending Montreal Center
Mon 10:28:06 PM 45.8000 -72.0000 258° West 370 426 32,300 -2,250 Descending Montreal Center
Mon 10:29:06 PM 45.8000 -72.1667 270° West 390 449 30,000 -2,350 Descending Montreal Center
Mon 10:30:06 PM 45.7833 -72.3333 262° West 410 472 27,600 -2,450 Descending Montreal Center
Mon 10:31:06 PM 45.7500 -72.5000 254° West 430 495 25,100 -2,500 Descending Montreal Center
Mon 10:32:06 PM 45.7500 -72.6500 270° West 440 506 22,600 -2,550 Descending Montreal Center
Mon 10:33:06 PM 45.7333 -72.8500 263° West 420 483 20,000 -2,450 Descending Montreal Center
Mon 10:34:06 PM 45.7000 -73.0167 254° West 410 472 17,700 -2,300 Descending Montreal Center
Mon 10:35:06 PM 45.6667 -73.1667 252° West 380 437 15,400 -2,150 Descending Montreal Center
Mon 10:36:06 PM 45.6333 -73.2833 248° West 370 426 13,400 -2,050 Descending Montreal Center
Mon 10:37:06 PM 45.5667 -73.4000 231° Southwest 370 426 11,300 -1,950 Descending Montreal Center
Mon 10:38:06 PM 45.5000 -73.5000 226° Southwest 330 380 9,500 -1,550 Descending Montreal Center
Mon 10:39:06 PM 45.4500 -73.5833 229° Southwest 260 299 8,200 -1,400 Descending Montreal Center
Mon 10:40:06 PM 45.4000 -73.6500 223° Southwest 270 311 6,700 -1,550 Descending Montreal Center
Mon 10:41:06 PM 45.3333 -73.7333 221° Southwest 280 322 5,100 -1,400 Descending Montreal Center
Mon 10:42:06 PM 45.2833 -73.8000 223° Southwest 260 299 3,900 -1,050 Descending Montreal Center
Mon 10:43:06 PM 45.3000 -73.8667 290° West 230 265 3,000 -500 Descending Montreal Center
Mon 10:44:06 PM 45.3500 -73.8667 360° North 160 184 2,900 -450 Descending Montreal Center
Mon 10:45:06 PM 45.3667 -73.8167 65° Northeast 160 184 2,100 -750 Descending Montreal Center
Mon 10:46:06 PM 45.4000 -73.8000 19° North 120 138 1,400 -650 Descending Montreal Center
Mon 10:47:06 PM 45.4167 -73.7667 55° Northeast 100 115 800 -600 Descending Montreal Center
Mon 10:48:06 PM 45.4500 -73.7167 46° Northeast 100 115 200 -350 Descending Montreal Center
Mon 10:49:06 PM 45.4500 -73.7167 90° East 50 58 100 -100 Descending Montreal Center

Login

Don't have an account? Register now (free) for customized features, flight alerts, and more!